sensor_id;sensor_type;location;lat;lon;timestamp;P1;durP1;ratioP1;P2;durP2;ratioP2
1475;SDS011;730;48.870;12.542;2024-03-25T00:01:40;2.67;;;1.90;;
1475;SDS011;730;48.870;12.542;2024-03-25T00:04:06;2.20;;;1.92;;
1475;SDS011;730;48.870;12.542;2024-03-25T00:06:32;3.93;;;2.13;;
1475;SDS011;730;48.870;12.542;2024-03-25T00:08:59;2.60;;;1.83;;
1475;SDS011;730;48.870;12.542;2024-03-25T00:11:26;5.10;;;2.20;;
1475;SDS011;730;48.870;12.542;2024-03-25T00:13:52;2.45;;;1.80;;
1475;SDS011;730;48.870;12.542;2024-03-25T00:16:18;2.70;;;2.00;;
1475;SDS011;730;48.870;12.542;2024-03-25T00:18:44;3.90;;;1.80;;
1475;SDS011;730;48.870;12.542;2024-03-25T00:21:10;3.60;;;1.70;;
1475;SDS011;730;48.870;12.542;2024-03-25T00:23:36;2.35;;;1.80;;
1475;SDS011;730;48.870;12.542;2024-03-25T00:26:02;3.97;;;2.40;;
1475;SDS011;730;48.870;12.542;2024-03-25T00:28:28;3.28;;;2.20;;
1475;SDS011;730;48.870;12.542;2024-03-25T00:30:54;4.05;;;2.20;;
1475;SDS011;730;48.870;12.542;2024-03-25T00:33:20;5.57;;;2.20;;
1475;SDS011;730;48.870;12.542;2024-03-25T00:35:46;2.90;;;2.17;;
1475;SDS011;730;48.870;12.542;2024-03-25T00:38:12;3.30;;;2.20;;
1475;SDS011;730;48.870;12.542;2024-03-25T00:40:38;3.50;;;1.70;;
1475;SDS011;730;48.870;12.542;2024-03-25T00:43:05;2.63;;;2.37;;
1475;SDS011;730;48.870;12.542;2024-03-25T00:45:31;3.57;;;2.50;;
1475;SDS011;730;48.870;12.542;2024-03-25T00:47:57;3.40;;;1.73;;
1475;SDS011;730;48.870;12.542;2024-03-25T00:50:25;2.33;;;1.85;;
1475;SDS011;730;48.870;12.542;2024-03-25T00:52:51;3.87;;;1.77;;
1475;SDS011;730;48.870;12.542;2024-03-25T00:55:17;2.22;;;1.80;;
1475;SDS011;730;48.870;12.542;2024-03-25T00:57:43;2.60;;;2.40;;
1475;SDS011;730;48.870;12.542;2024-03-25T01:00:09;3.00;;;2.07;;
1475;SDS011;730;48.870;12.542;2024-03-25T01:02:36;2.95;;;2.15;;
1475;SDS011;730;48.870;12.542;2024-03-25T01:05:03;3.38;;;1.98;;
1475;SDS011;730;48.870;12.542;2024-03-25T01:07:31;2.50;;;2.08;;
1475;SDS011;730;48.870;12.542;2024-03-25T01:09:57;2.95;;;1.70;;
1475;SDS011;730;48.870;12.542;2024-03-25T01:12:24;4.72;;;2.20;;
1475;SDS011;730;48.870;12.542;2024-03-25T01:14:51;4.50;;;1.80;;
1475;SDS011;730;48.870;12.542;2024-03-25T01:17:18;2.88;;;1.60;;
1475;SDS011;730;48.870;12.542;2024-03-25T01:19:44;2.90;;;2.15;;
1475;SDS011;730;48.870;12.542;2024-03-25T01:22:10;2.10;;;1.88;;
1475;SDS011;730;48.870;12.542;2024-03-25T01:24:36;3.10;;;1.97;;
1475;SDS011;730;48.870;12.542;2024-03-25T01:27:02;2.60;;;2.10;;
1475;SDS011;730;48.870;12.542;2024-03-25T01:29:29;3.78;;;2.30;;
1475;SDS011;730;48.870;12.542;2024-03-25T01:31:55;2.20;;;2.00;;
1475;SDS011;730;48.870;12.542;2024-03-25T01:34:23;2.83;;;2.08;;
1475;SDS011;730;48.870;12.542;2024-03-25T01:36:49;3.10;;;1.93;;
1475;SDS011;730;48.870;12.542;2024-03-25T01:39:15;4.97;;;2.10;;
1475;SDS011;730;48.870;12.542;2024-03-25T01:41:41;3.03;;;2.43;;
1475;SDS011;730;48.870;12.542;2024-03-25T01:44:07;2.40;;;2.00;;
1475;SDS011;730;48.870;12.542;2024-03-25T01:46:33;2.97;;;2.08;;
1475;SDS011;730;48.870;12.542;2024-03-25T01:49:00;3.65;;;2.15;;
1475;SDS011;730;48.870;12.542;2024-03-25T01:51:26;3.60;;;2.50;;
1475;SDS011;730;48.870;12.542;2024-03-25T01:53:53;2.42;;;2.03;;
1475;SDS011;730;48.870;12.542;2024-03-25T01:56:20;3.55;;;2.10;;
1475;SDS011;730;48.870;12.542;2024-03-25T01:58:48;3.23;;;2.10;;
1475;SDS011;730;48.870;12.542;2024-03-25T02:01:15;2.58;;;1.92;;
1475;SDS011;730;48.870;12.542;2024-03-25T02:03:42;3.20;;;2.10;;
1475;SDS011;730;48.870;12.542;2024-03-25T02:06:15;4.10;;;1.93;;
1475;SDS011;730;48.870;12.542;2024-03-25T02:08:45;2.80;;;1.80;;
1475;SDS011;730;48.870;12.542;2024-03-25T02:11:13;2.90;;;2.20;;
1475;SDS011;730;48.870;12.542;2024-03-25T02:13:40;3.80;;;2.13;;
1475;SDS011;730;48.870;12.542;2024-03-25T02:16:06;3.83;;;2.13;;
1475;SDS011;730;48.870;12.542;2024-03-25T02:18:32;4.05;;;2.33;;
1475;SDS011;730;48.870;12.542;2024-03-25T02:20:59;3.37;;;2.63;;
1475;SDS011;730;48.870;12.542;2024-03-25T02:23:29;3.10;;;2.80;;
1475;SDS011;730;48.870;12.542;2024-03-25T02:25:56;3.70;;;2.25;;
1475;SDS011;730;48.870;12.542;2024-03-25T02:28:22;3.67;;;3.13;;
1475;SDS011;730;48.870;12.542;2024-03-25T02:30:48;2.65;;;1.77;;
1475;SDS011;730;48.870;12.542;2024-03-25T02:33:14;3.15;;;2.30;;
1475;SDS011;730;48.870;12.542;2024-03-25T02:35:40;2.53;;;1.83;;
1475;SDS011;730;48.870;12.542;2024-03-25T02:38:07;2.72;;;2.38;;
1475;SDS011;730;48.870;12.542;2024-03-25T02:40:34;2.78;;;2.28;;
1475;SDS011;730;48.870;12.542;2024-03-25T02:43:01;4.65;;;2.55;;
1475;SDS011;730;48.870;12.542;2024-03-25T02:45:27;2.80;;;2.42;;
1475;SDS011;730;48.870;12.542;2024-03-25T02:47:54;2.38;;;2.17;;
1475;SDS011;730;48.870;12.542;2024-03-25T02:50:20;3.50;;;2.80;;
1475;SDS011;730;48.870;12.542;2024-03-25T02:52:46;3.40;;;2.87;;
1475;SDS011;730;48.870;12.542;2024-03-25T02:55:13;2.45;;;1.92;;
1475;SDS011;730;48.870;12.542;2024-03-25T02:57:39;3.33;;;2.28;;
1475;SDS011;730;48.870;12.542;2024-03-25T03:00:05;4.00;;;2.60;;
1475;SDS011;730;48.870;12.542;2024-03-25T03:02:33;2.90;;;2.40;;
1475;SDS011;730;48.870;12.542;2024-03-25T03:04:59;3.75;;;2.20;;
1475;SDS011;730;48.870;12.542;2024-03-25T03:07:26;2.63;;;2.00;;
1475;SDS011;730;48.870;12.542;2024-03-25T03:09:52;3.23;;;2.30;;
1475;SDS011;730;48.870;12.542;2024-03-25T03:12:18;5.28;;;1.90;;
1475;SDS011;730;48.870;12.542;2024-03-25T03:14:44;3.45;;;2.10;;
1475;SDS011;730;48.870;12.542;2024-03-25T03:17:10;2.78;;;2.40;;
1475;SDS011;730;48.870;12.542;2024-03-25T03:19:36;3.07;;;2.10;;
1475;SDS011;730;48.870;12.542;2024-03-25T03:22:02;3.30;;;2.57;;
1475;SDS011;730;48.870;12.542;2024-03-25T03:24:28;3.70;;;2.03;;
1475;SDS011;730;48.870;12.542;2024-03-25T03:26:54;4.93;;;3.23;;
1475;SDS011;730;48.870;12.542;2024-03-25T03:29:20;2.70;;;2.00;;
1475;SDS011;730;48.870;12.542;2024-03-25T03:31:46;3.28;;;2.15;;
1475;SDS011;730;48.870;12.542;2024-03-25T03:34:12;3.30;;;2.10;;
1475;SDS011;730;48.870;12.542;2024-03-25T03:36:38;4.80;;;3.20;;
1475;SDS011;730;48.870;12.542;2024-03-25T03:39:06;3.50;;;2.70;;
1475;SDS011;730;48.870;12.542;2024-03-25T03:41:34;3.50;;;2.63;;
1475;SDS011;730;48.870;12.542;2024-03-25T03:44:01;9.20;;;2.80;;
1475;SDS011;730;48.870;12.542;2024-03-25T03:46:27;5.38;;;2.38;;
1475;SDS011;730;48.870;12.542;2024-03-25T03:48:53;2.70;;;2.33;;
1475;SDS011;730;48.870;12.542;2024-03-25T03:51:19;3.10;;;2.35;;
1475;SDS011;730;48.870;12.542;2024-03-25T03:53:45;3.53;;;2.00;;
1475;SDS011;730;48.870;12.542;2024-03-25T03:56:12;4.15;;;2.90;;
1475;SDS011;730;48.870;12.542;2024-03-25T03:58:38;3.50;;;2.40;;
1475;SDS011;730;48.870;12.542;2024-03-25T04:01:16;2.90;;;2.20;;
1475;SDS011;730;48.870;12.542;2024-03-25T04:03:43;3.38;;;2.38;;
1475;SDS011;730;48.870;12.542;2024-03-25T04:06:09;3.88;;;2.50;;
1475;SDS011;730;48.870;12.542;2024-03-25T04:08:37;3.88;;;3.17;;
1475;SDS011;730;48.870;12.542;2024-03-25T04:11:04;5.13;;;2.53;;
1475;SDS011;730;48.870;12.542;2024-03-25T04:13:32;3.95;;;1.80;;
1475;SDS011;730;48.870;12.542;2024-03-25T04:16:02;3.05;;;2.47;;
1475;SDS011;730;48.870;12.542;2024-03-25T04:18:30;4.00;;;3.17;;
1475;SDS011;730;48.870;12.542;2024-03-25T04:20:57;3.47;;;2.35;;
1475;SDS011;730;48.870;12.542;2024-03-25T04:23:24;2.95;;;1.80;;
1475;SDS011;730;48.870;12.542;2024-03-25T04:25:50;6.07;;;2.10;;
1475;SDS011;730;48.870;12.542;2024-03-25T04:28:16;2.97;;;2.20;;
1475;SDS011;730;48.870;12.542;2024-03-25T04:30:43;3.50;;;2.23;;
1475;SDS011;730;48.870;12.542;2024-03-25T04:33:09;2.77;;;2.20;;
1475;SDS011;730;48.870;12.542;2024-03-25T04:35:35;2.50;;;2.08;;
1475;SDS011;730;48.870;12.542;2024-03-25T04:38:01;3.30;;;2.50;;
1475;SDS011;730;48.870;12.542;2024-03-25T04:40:28;2.93;;;2.27;;
1475;SDS011;730;48.870;12.542;2024-03-25T04:43:02;2.80;;;2.10;;
1475;SDS011;730;48.870;12.542;2024-03-25T04:45:28;2.55;;;2.20;;
1475;SDS011;730;48.870;12.542;2024-03-25T04:47:54;2.90;;;2.33;;
1475;SDS011;730;48.870;12.542;2024-03-25T04:50:21;4.75;;;2.42;;
1475;SDS011;730;48.870;12.542;2024-03-25T04:52:47;4.45;;;2.15;;
1475;SDS011;730;48.870;12.542;2024-03-25T04:55:13;3.23;;;2.10;;
1475;SDS011;730;48.870;12.542;2024-03-25T04:57:39;2.60;;;1.93;;
1475;SDS011;730;48.870;12.542;2024-03-25T05:00:05;2.60;;;2.00;;
1475;SDS011;730;48.870;12.542;2024-03-25T05:02:32;2.80;;;1.95;;
1475;SDS011;730;48.870;12.542;2024-03-25T05:05:01;3.38;;;2.05;;
1475;SDS011;730;48.870;12.542;2024-03-25T05:07:28;3.67;;;2.45;;
1475;SDS011;730;48.870;12.542;2024-03-25T05:09:54;5.03;;;2.47;;
1475;SDS011;730;48.870;12.542;2024-03-25T05:12:21;4.30;;;2.20;;
1475;SDS011;730;48.870;12.542;2024-03-25T05:14:47;6.95;;;2.50;;
1475;SDS011;730;48.870;12.542;2024-03-25T05:17:13;2.75;;;2.22;;
1475;SDS011;730;48.870;12.542;2024-03-25T05:19:39;3.83;;;2.60;;
1475;SDS011;730;48.870;12.542;2024-03-25T05:22:05;3.03;;;2.20;;
1475;SDS011;730;48.870;12.542;2024-03-25T05:24:31;4.60;;;2.63;;
1475;SDS011;730;48.870;12.542;2024-03-25T05:26:58;3.60;;;2.50;;
1475;SDS011;730;48.870;12.542;2024-03-25T05:29:24;6.13;;;3.10;;
1475;SDS011;730;48.870;12.542;2024-03-25T05:32:00;4.80;;;2.65;;
1475;SDS011;730;48.870;12.542;2024-03-25T05:34:27;6.03;;;3.30;;
1475;SDS011;730;48.870;12.542;2024-03-25T05:36:54;5.80;;;2.40;;
1475;SDS011;730;48.870;12.542;2024-03-25T05:39:20;3.28;;;2.97;;
1475;SDS011;730;48.870;12.542;2024-03-25T05:41:47;3.88;;;2.72;;
1475;SDS011;730;48.870;12.542;2024-03-25T05:44:13;6.90;;;3.20;;
1475;SDS011;730;48.870;12.542;2024-03-25T05:46:39;5.57;;;2.92;;
1475;SDS011;730;48.870;12.542;2024-03-25T05:49:06;4.60;;;2.77;;
1475;SDS011;730;48.870;12.542;2024-03-25T05:51:32;5.43;;;2.75;;
1475;SDS011;730;48.870;12.542;2024-03-25T05:53:58;7.73;;;3.00;;
1475;SDS011;730;48.870;12.542;2024-03-25T05:56:24;2.67;;;2.13;;
1475;SDS011;730;48.870;12.542;2024-03-25T05:58:58;4.05;;;2.78;;
1475;SDS011;730;48.870;12.542;2024-03-25T06:01:25;4.20;;;3.10;;
1475;SDS011;730;48.870;12.542;2024-03-25T06:03:52;2.50;;;2.20;;
1475;SDS011;730;48.870;12.542;2024-03-25T06:06:18;3.03;;;2.20;;
1475;SDS011;730;48.870;12.542;2024-03-25T06:08:44;6.80;;;3.00;;
1475;SDS011;730;48.870;12.542;2024-03-25T06:11:11;3.80;;;2.63;;
1475;SDS011;730;48.870;12.542;2024-03-25T06:13:37;3.20;;;2.37;;
1475;SDS011;730;48.870;12.542;2024-03-25T06:16:03;3.47;;;2.77;;
1475;SDS011;730;48.870;12.542;2024-03-25T06:18:29;3.90;;;2.60;;
1475;SDS011;730;48.870;12.542;2024-03-25T06:20:55;6.27;;;2.83;;
1475;SDS011;730;48.870;12.542;2024-03-25T06:23:22;4.10;;;3.20;;
1475;SDS011;730;48.870;12.542;2024-03-25T06:25:52;3.37;;;2.63;;
1475;SDS011;730;48.870;12.542;2024-03-25T06:28:20;4.50;;;3.00;;
1475;SDS011;730;48.870;12.542;2024-03-25T06:30:46;6.50;;;3.07;;
1475;SDS011;730;48.870;12.542;2024-03-25T06:33:32;4.45;;;2.58;;
1475;SDS011;730;48.870;12.542;2024-03-25T06:36:17;3.40;;;3.10;;
1475;SDS011;730;48.870;12.542;2024-03-25T06:38:43;3.90;;;2.67;;
1475;SDS011;730;48.870;12.542;2024-03-25T06:41:09;5.27;;;3.30;;
1475;SDS011;730;48.870;12.542;2024-03-25T06:43:36;3.63;;;2.40;;
1475;SDS011;730;48.870;12.542;2024-03-25T06:46:05;4.50;;;2.80;;
1475;SDS011;730;48.870;12.542;2024-03-25T06:48:35;3.50;;;2.60;;
1475;SDS011;730;48.870;12.542;2024-03-25T06:51:02;3.90;;;2.83;;
1475;SDS011;730;48.870;12.542;2024-03-25T06:53:31;8.17;;;2.77;;
1475;SDS011;730;48.870;12.542;2024-03-25T06:55:58;3.70;;;2.80;;
1475;SDS011;730;48.870;12.542;2024-03-25T06:58:25;4.47;;;2.70;;
1475;SDS011;730;48.870;12.542;2024-03-25T07:00:52;3.63;;;2.97;;
1475;SDS011;730;48.870;12.542;2024-03-25T07:03:20;5.43;;;3.23;;
1475;SDS011;730;48.870;12.542;2024-03-25T07:05:48;6.00;;;3.33;;
1475;SDS011;730;48.870;12.542;2024-03-25T07:08:15;5.70;;;3.00;;
1475;SDS011;730;48.870;12.542;2024-03-25T07:10:41;4.50;;;4.10;;
1475;SDS011;730;48.870;12.542;2024-03-25T07:13:08;5.00;;;3.40;;
1475;SDS011;730;48.870;12.542;2024-03-25T07:15:34;4.00;;;3.10;;
1475;SDS011;730;48.870;12.542;2024-03-25T07:18:00;4.83;;;3.47;;
1475;SDS011;730;48.870;12.542;2024-03-25T07:20:28;3.50;;;3.20;;
1475;SDS011;730;48.870;12.542;2024-03-25T07:22:54;3.50;;;3.10;;
1475;SDS011;730;48.870;12.542;2024-03-25T07:25:24;5.93;;;3.03;;
1475;SDS011;730;48.870;12.542;2024-03-25T07:27:50;4.80;;;4.07;;
1475;SDS011;730;48.870;12.542;2024-03-25T07:30:17;5.37;;;3.73;;
1475;SDS011;730;48.870;12.542;2024-03-25T07:32:44;5.87;;;3.50;;
1475;SDS011;730;48.870;12.542;2024-03-25T07:35:11;3.20;;;2.90;;
1475;SDS011;730;48.870;12.542;2024-03-25T07:37:37;3.77;;;2.93;;
1475;SDS011;730;48.870;12.542;2024-03-25T07:40:04;4.83;;;3.07;;
1475;SDS011;730;48.870;12.542;2024-03-25T07:42:30;4.67;;;3.17;;
1475;SDS011;730;48.870;12.542;2024-03-25T07:44:56;2.90;;;2.67;;
1475;SDS011;730;48.870;12.542;2024-03-25T07:47:23;5.63;;;3.03;;
1475;SDS011;730;48.870;12.542;2024-03-25T07:49:49;4.00;;;2.70;;
1475;SDS011;730;48.870;12.542;2024-03-25T07:52:15;5.20;;;3.20;;
1475;SDS011;730;48.870;12.542;2024-03-25T07:54:41;3.93;;;3.53;;
1475;SDS011;730;48.870;12.542;2024-03-25T07:57:08;2.33;;;1.87;;
1475;SDS011;730;48.870;12.542;2024-03-25T07:59:34;4.90;;;3.03;;
1475;SDS011;730;48.870;12.542;2024-03-25T08:02:01;4.63;;;2.33;;
1475;SDS011;730;48.870;12.542;2024-03-25T08:04:27;4.70;;;2.30;;
1475;SDS011;730;48.870;12.542;2024-03-25T08:06:53;3.07;;;2.23;;
1475;SDS011;730;48.870;12.542;2024-03-25T08:09:19;4.23;;;2.13;;
1475;SDS011;730;48.870;12.542;2024-03-25T08:11:45;3.07;;;2.30;;
1475;SDS011;730;48.870;12.542;2024-03-25T08:14:11;2.50;;;2.23;;
1475;SDS011;730;48.870;12.542;2024-03-25T08:16:46;2.80;;;1.90;;
1475;SDS011;730;48.870;12.542;2024-03-25T08:19:12;2.27;;;1.63;;
1475;SDS011;730;48.870;12.542;2024-03-25T08:21:38;3.80;;;2.63;;
1475;SDS011;730;48.870;12.542;2024-03-25T08:24:04;3.30;;;2.07;;
1475;SDS011;730;48.870;12.542;2024-03-25T08:26:31;3.43;;;2.17;;
1475;SDS011;730;48.870;12.542;2024-03-25T08:28:57;3.30;;;2.03;;
1475;SDS011;730;48.870;12.542;2024-03-25T08:31:23;5.00;;;2.40;;
1475;SDS011;730;48.870;12.542;2024-03-25T08:33:49;2.83;;;2.30;;
1475;SDS011;730;48.870;12.542;2024-03-25T08:36:16;3.23;;;2.83;;
1475;SDS011;730;48.870;12.542;2024-03-25T08:38:44;5.10;;;2.30;;
1475;SDS011;730;48.870;12.542;2024-03-25T08:41:10;2.97;;;2.67;;
1475;SDS011;730;48.870;12.542;2024-03-25T08:43:36;3.23;;;2.63;;
1475;SDS011;730;48.870;12.542;2024-03-25T08:46:02;4.50;;;2.50;;
1475;SDS011;730;48.870;12.542;2024-03-25T08:48:29;3.07;;;2.77;;
1475;SDS011;730;48.870;12.542;2024-03-25T08:50:55;3.93;;;3.10;;
1475;SDS011;730;48.870;12.542;2024-03-25T08:53:21;3.20;;;2.90;;
1475;SDS011;730;48.870;12.542;2024-03-25T08:55:48;4.00;;;2.73;;
1475;SDS011;730;48.870;12.542;2024-03-25T08:58:14;3.40;;;3.07;;
1475;SDS011;730;48.870;12.542;2024-03-25T09:00:41;2.90;;;2.60;;
1475;SDS011;730;48.870;12.542;2024-03-25T09:03:08;3.57;;;3.27;;
1475;SDS011;730;48.870;12.542;2024-03-25T09:05:34;3.90;;;3.50;;
1475;SDS011;730;48.870;12.542;2024-03-25T09:08:00;3.07;;;2.70;;
1475;SDS011;730;48.870;12.542;2024-03-25T09:10:26;3.30;;;3.00;;
1475;SDS011;730;48.870;12.542;2024-03-25T09:13:13;2.80;;;2.60;;
1475;SDS011;730;48.870;12.542;2024-03-25T09:15:39;3.83;;;2.50;;
1475;SDS011;730;48.870;12.542;2024-03-25T09:18:05;3.33;;;2.70;;
1475;SDS011;730;48.870;12.542;2024-03-25T09:20:32;2.57;;;1.87;;
1475;SDS011;730;48.870;12.542;2024-03-25T09:22:58;4.40;;;2.53;;
1475;SDS011;730;48.870;12.542;2024-03-25T09:25:24;5.73;;;2.60;;
1475;SDS011;730;48.870;12.542;2024-03-25T09:27:50;2.60;;;2.40;;
1475;SDS011;730;48.870;12.542;2024-03-25T09:30:16;2.90;;;2.70;;
1475;SDS011;730;48.870;12.542;2024-03-25T09:32:46;2.13;;;1.93;;
1475;SDS011;730;48.870;12.542;2024-03-25T09:35:13;4.23;;;2.67;;
1475;SDS011;730;48.870;12.542;2024-03-25T09:37:39;3.67;;;2.80;;
1475;SDS011;730;48.870;12.542;2024-03-25T09:40:05;2.87;;;1.90;;
1475;SDS011;730;48.870;12.542;2024-03-25T09:45:07;3.07;;;2.30;;
1475;SDS011;730;48.870;12.542;2024-03-25T09:47:35;5.30;;;2.60;;
1475;SDS011;730;48.870;12.542;2024-03-25T09:50:02;3.30;;;2.30;;
1475;SDS011;730;48.870;12.542;2024-03-25T09:52:31;2.07;;;1.87;;
1475;SDS011;730;48.870;12.542;2024-03-25T09:54:57;5.40;;;2.50;;
1475;SDS011;730;48.870;12.542;2024-03-25T09:57:23;2.70;;;2.10;;
1475;SDS011;730;48.870;12.542;2024-03-25T09:59:50;3.37;;;1.80;;
1475;SDS011;730;48.870;12.542;2024-03-25T10:02:17;2.17;;;1.60;;
1475;SDS011;730;48.870;12.542;2024-03-25T10:04:45;4.83;;;2.20;;
1475;SDS011;730;48.870;12.542;2024-03-25T10:07:31;3.40;;;2.53;;
1475;SDS011;730;48.870;12.542;2024-03-25T10:09:57;2.93;;;2.40;;
1475;SDS011;730;48.870;12.542;2024-03-25T10:12:27;2.53;;;2.33;;
1475;SDS011;730;48.870;12.542;2024-03-25T10:14:53;1.97;;;1.87;;
1475;SDS011;730;48.870;12.542;2024-03-25T10:17:19;2.63;;;2.20;;
1475;SDS011;730;48.870;12.542;2024-03-25T10:19:45;3.30;;;2.57;;
1475;SDS011;730;48.870;12.542;2024-03-25T10:22:11;3.07;;;1.90;;
1475;SDS011;730;48.870;12.542;2024-03-25T10:24:41;2.80;;;2.30;;
1475;SDS011;730;48.870;12.542;2024-03-25T10:29:48;2.63;;;1.50;;
1475;SDS011;730;48.870;12.542;2024-03-25T10:32:18;3.33;;;1.93;;
1475;SDS011;730;48.870;12.542;2024-03-25T10:34:45;2.73;;;1.90;;
1475;SDS011;730;48.870;12.542;2024-03-25T10:37:11;3.33;;;2.37;;
1475;SDS011;730;48.870;12.542;2024-03-25T10:39:45;3.17;;;1.63;;
1475;SDS011;730;48.870;12.542;2024-03-25T10:42:18;1.83;;;1.57;;
1475;SDS011;730;48.870;12.542;2024-03-25T10:44:46;2.83;;;2.03;;
1475;SDS011;730;48.870;12.542;2024-03-25T10:47:20;2.30;;;1.80;;
1475;SDS011;730;48.870;12.542;2024-03-25T10:52:17;1.90;;;1.40;;
1475;SDS011;730;48.870;12.542;2024-03-25T10:54:46;3.33;;;2.23;;
1475;SDS011;730;48.870;12.542;2024-03-25T10:57:13;1.97;;;1.77;;
1475;SDS011;730;48.870;12.542;2024-03-25T10:59:40;3.00;;;1.30;;
1475;SDS011;730;48.870;12.542;2024-03-25T11:02:11;2.73;;;1.33;;
1475;SDS011;730;48.870;12.542;2024-03-25T11:04:38;1.77;;;1.20;;
1475;SDS011;730;48.870;12.542;2024-03-25T11:07:09;2.53;;;1.80;;
1475;SDS011;730;48.870;12.542;2024-03-25T11:09:36;2.60;;;1.60;;
1475;SDS011;730;48.870;12.542;2024-03-25T11:12:02;1.60;;;1.27;;
1475;SDS011;730;48.870;12.542;2024-03-25T11:14:29;2.10;;;1.77;;
1475;SDS011;730;48.870;12.542;2024-03-25T11:16:57;4.33;;;1.60;;
1475;SDS011;730;48.870;12.542;2024-03-25T11:19:27;2.97;;;1.90;;
1475;SDS011;730;48.870;12.542;2024-03-25T11:22:06;1.73;;;1.37;;
1475;SDS011;730;48.870;12.542;2024-03-25T11:24:34;1.80;;;1.57;;
1475;SDS011;730;48.870;12.542;2024-03-25T11:27:06;3.00;;;1.50;;
1475;SDS011;730;48.870;12.542;2024-03-25T11:29:33;2.23;;;1.33;;
1475;SDS011;730;48.870;12.542;2024-03-25T11:32:03;1.73;;;1.40;;
1475;SDS011;730;48.870;12.542;2024-03-25T11:34:30;2.43;;;1.57;;
1475;SDS011;730;48.870;12.542;2024-03-25T11:36:56;2.53;;;1.30;;
1475;SDS011;730;48.870;12.542;2024-03-25T11:39:23;2.17;;;1.50;;
1475;SDS011;730;48.870;12.542;2024-03-25T11:41:52;2.00;;;1.80;;
1475;SDS011;730;48.870;12.542;2024-03-25T11:44:18;2.60;;;1.50;;
1475;SDS011;730;48.870;12.542;2024-03-25T11:46:44;2.53;;;1.43;;
1475;SDS011;730;48.870;12.542;2024-03-25T11:49:16;2.53;;;1.53;;
1475;SDS011;730;48.870;12.542;2024-03-25T11:51:43;4.27;;;2.70;;
1475;SDS011;730;48.870;12.542;2024-03-25T11:54:11;4.60;;;3.67;;
1475;SDS011;730;48.870;12.542;2024-03-25T11:56:38;2.30;;;1.53;;
1475;SDS011;730;48.870;12.542;2024-03-25T11:59:05;2.90;;;1.83;;
1475;SDS011;730;48.870;12.542;2024-03-25T12:01:32;2.03;;;1.50;;
1475;SDS011;730;48.870;12.542;2024-03-25T12:04:17;2.90;;;1.47;;
1475;SDS011;730;48.870;12.542;2024-03-25T12:06:45;1.40;;;1.23;;
1475;SDS011;730;48.870;12.542;2024-03-25T12:09:11;2.10;;;1.50;;
1475;SDS011;730;48.870;12.542;2024-03-25T12:11:58;3.00;;;1.50;;
1475;SDS011;730;48.870;12.542;2024-03-25T12:14:24;1.70;;;1.40;;
1475;SDS011;730;48.870;12.542;2024-03-25T12:16:55;2.73;;;1.80;;
1475;SDS011;730;48.870;12.542;2024-03-25T12:19:24;1.80;;;1.30;;
1475;SDS011;730;48.870;12.542;2024-03-25T12:21:50;2.33;;;1.53;;
1475;SDS011;730;48.870;12.542;2024-03-25T12:24:24;2.50;;;1.43;;
1475;SDS011;730;48.870;12.542;2024-03-25T12:26:50;2.87;;;1.80;;
1475;SDS011;730;48.870;12.542;2024-03-25T12:29:17;2.20;;;1.53;;
1475;SDS011;730;48.870;12.542;2024-03-25T12:31:43;2.50;;;1.50;;
1475;SDS011;730;48.870;12.542;2024-03-25T12:34:19;2.67;;;1.77;;
1475;SDS011;730;48.870;12.542;2024-03-25T12:36:46;2.63;;;1.70;;
1475;SDS011;730;48.870;12.542;2024-03-25T12:39:15;1.60;;;1.40;;
1475;SDS011;730;48.870;12.542;2024-03-25T12:41:42;3.10;;;2.20;;
1475;SDS011;730;48.870;12.542;2024-03-25T12:44:09;3.07;;;1.90;;
1475;SDS011;730;48.870;12.542;2024-03-25T12:46:37;1.87;;;1.63;;
1475;SDS011;730;48.870;12.542;2024-03-25T12:49:04;2.23;;;1.23;;
1475;SDS011;730;48.870;12.542;2024-03-25T12:51:31;2.20;;;1.57;;
1475;SDS011;730;48.870;12.542;2024-03-25T12:53:58;2.83;;;1.87;;
1475;SDS011;730;48.870;12.542;2024-03-25T12:56:24;4.27;;;2.00;;
1475;SDS011;730;48.870;12.542;2024-03-25T12:58:51;2.40;;;2.07;;
1475;SDS011;730;48.870;12.542;2024-03-25T13:01:17;3.00;;;1.60;;
1475;SDS011;730;48.870;12.542;2024-03-25T13:03:44;2.00;;;1.50;;
1475;SDS011;730;48.870;12.542;2024-03-25T13:06:11;1.47;;;1.37;;
1475;SDS011;730;48.870;12.542;2024-03-25T13:08:37;2.50;;;1.53;;
1475;SDS011;730;48.870;12.542;2024-03-25T13:11:03;2.53;;;1.60;;
1475;SDS011;730;48.870;12.542;2024-03-25T13:13:29;2.00;;;1.57;;
1475;SDS011;730;48.870;12.542;2024-03-25T13:15:55;1.93;;;1.50;;
1475;SDS011;730;48.870;12.542;2024-03-25T13:18:21;1.80;;;1.63;;
1475;SDS011;730;48.870;12.542;2024-03-25T13:20:47;2.10;;;1.80;;
1475;SDS011;730;48.870;12.542;2024-03-25T13:23:13;1.83;;;1.60;;
1475;SDS011;730;48.870;12.542;2024-03-25T13:25:40;4.20;;;2.10;;
1475;SDS011;730;48.870;12.542;2024-03-25T13:28:06;2.07;;;1.47;;
1475;SDS011;730;48.870;12.542;2024-03-25T13:30:32;3.70;;;1.50;;
1475;SDS011;730;48.870;12.542;2024-03-25T13:32:58;2.00;;;1.33;;
1475;SDS011;730;48.870;12.542;2024-03-25T13:35:24;3.37;;;1.90;;
1475;SDS011;730;48.870;12.542;2024-03-25T13:37:50;4.40;;;2.67;;
1475;SDS011;730;48.870;12.542;2024-03-25T13:40:16;3.37;;;2.93;;
1475;SDS011;730;48.870;12.542;2024-03-25T13:42:42;4.33;;;2.20;;
1475;SDS011;730;48.870;12.542;2024-03-25T13:45:08;2.30;;;1.97;;
1475;SDS011;730;48.870;12.542;2024-03-25T13:47:35;2.03;;;1.73;;
1475;SDS011;730;48.870;12.542;2024-03-25T13:50:04;2.20;;;1.80;;
1475;SDS011;730;48.870;12.542;2024-03-25T13:52:34;1.67;;;1.30;;
1475;SDS011;730;48.870;12.542;2024-03-25T13:55:03;2.77;;;2.17;;
1475;SDS011;730;48.870;12.542;2024-03-25T13:57:30;1.67;;;1.30;;
1475;SDS011;730;48.870;12.542;2024-03-25T13:59:56;1.90;;;1.60;;
1475;SDS011;730;48.870;12.542;2024-03-25T14:02:23;2.07;;;1.87;;
1475;SDS011;730;48.870;12.542;2024-03-25T14:04:49;3.30;;;3.00;;
1475;SDS011;730;48.870;12.542;2024-03-25T14:07:15;4.87;;;3.60;;
1475;SDS011;730;48.870;12.542;2024-03-25T14:09:42;1.87;;;1.70;;
1475;SDS011;730;48.870;12.542;2024-03-25T14:12:08;2.40;;;2.00;;
1475;SDS011;730;48.870;12.542;2024-03-25T14:14:34;2.40;;;2.10;;
1475;SDS011;730;48.870;12.542;2024-03-25T14:17:00;3.50;;;2.00;;
1475;SDS011;730;48.870;12.542;2024-03-25T14:19:26;1.67;;;1.57;;
1475;SDS011;730;48.870;12.542;2024-03-25T14:21:52;2.50;;;1.40;;
1475;SDS011;730;48.870;12.542;2024-03-25T14:24:18;1.90;;;1.70;;
1475;SDS011;730;48.870;12.542;2024-03-25T14:26:44;2.80;;;1.77;;
1475;SDS011;730;48.870;12.542;2024-03-25T14:29:10;2.97;;;2.00;;
1475;SDS011;730;48.870;12.542;2024-03-25T14:31:36;3.73;;;2.23;;
1475;SDS011;730;48.870;12.542;2024-03-25T14:34:02;4.97;;;3.10;;
1475;SDS011;730;48.870;12.542;2024-03-25T14:36:29;2.27;;;1.90;;
1475;SDS011;730;48.870;12.542;2024-03-25T14:38:55;1.60;;;1.40;;
1475;SDS011;730;48.870;12.542;2024-03-25T14:41:21;2.30;;;1.60;;
1475;SDS011;730;48.870;12.542;2024-03-25T14:43:47;2.70;;;2.40;;
1475;SDS011;730;48.870;12.542;2024-03-25T14:46:16;3.63;;;3.33;;
1475;SDS011;730;48.870;12.542;2024-03-25T14:48:43;3.73;;;2.37;;
1475;SDS011;730;48.870;12.542;2024-03-25T14:51:10;1.80;;;1.70;;
1475;SDS011;730;48.870;12.542;2024-03-25T14:53:36;1.90;;;1.40;;
1475;SDS011;730;48.870;12.542;2024-03-25T14:56:02;2.07;;;1.63;;
1475;SDS011;730;48.870;12.542;2024-03-25T14:58:29;2.60;;;1.47;;
1475;SDS011;730;48.870;12.542;2024-03-25T15:00:56;1.43;;;1.30;;
1475;SDS011;730;48.870;12.542;2024-03-25T15:03:22;3.00;;;2.00;;
1475;SDS011;730;48.870;12.542;2024-03-25T15:05:48;1.53;;;1.40;;
1475;SDS011;730;48.870;12.542;2024-03-25T15:08:14;4.57;;;1.63;;
1475;SDS011;730;48.870;12.542;2024-03-25T15:10:40;3.10;;;2.17;;
1475;SDS011;730;48.870;12.542;2024-03-25T15:13:07;2.10;;;1.80;;
1475;SDS011;730;48.870;12.542;2024-03-25T15:15:33;1.60;;;1.50;;
1475;SDS011;730;48.870;12.542;2024-03-25T15:18:04;2.20;;;1.53;;
1475;SDS011;730;48.870;12.542;2024-03-25T15:20:32;1.80;;;1.60;;
1475;SDS011;730;48.870;12.542;2024-03-25T15:22:58;2.10;;;1.87;;